createdAt,value
2018-08-03T00:02:02.470Z,26.10
2018-08-03T00:04:30.658Z,26.10
2018-08-03T00:06:58.892Z,26.00
2018-08-03T00:09:27.156Z,26.00
2018-08-03T00:11:55.337Z,26.00
2018-08-03T00:14:23.522Z,25.90
2018-08-03T00:16:51.726Z,25.80
2018-08-03T00:19:19.928Z,25.80
2018-08-03T00:21:48.150Z,25.90
2018-08-03T00:24:16.361Z,25.90
2018-08-03T00:26:44.570Z,26.00
2018-08-03T00:29:12.869Z,26.00
2018-08-03T00:34:09.040Z,26.10
2018-08-03T00:36:37.247Z,26.10
2018-08-03T00:39:07.826Z,26.10
2018-08-03T00:41:36.004Z,26.10
2018-08-03T00:44:04.254Z,26.20
2018-08-03T00:46:32.448Z,26.20
2018-08-03T00:49:00.748Z,26.20
2018-08-03T00:51:28.929Z,26.20
2018-08-03T00:56:25.228Z,26.20
2018-08-03T00:58:53.478Z,26.20
2018-08-03T01:01:21.730Z,26.20
2018-08-03T01:06:18.342Z,26.20
2018-08-03T01:08:46.550Z,26.20
2018-08-03T01:11:14.732Z,26.10
2018-08-03T01:13:42.972Z,26.10
2018-08-03T01:16:11.156Z,26.20
2018-08-03T01:18:39.404Z,26.20
2018-08-03T01:21:08.006Z,26.20
2018-08-03T01:23:36.192Z,26.20
2018-08-03T01:26:04.370Z,26.20
2018-08-03T01:28:32.606Z,26.10
2018-08-03T01:31:00.856Z,26.20
2018-08-03T01:33:29.042Z,26.20
2018-08-03T01:35:57.248Z,26.20
2018-08-03T01:38:25.466Z,26.20
2018-08-03T01:40:53.650Z,26.10
2018-08-03T01:43:21.855Z,26.10
2018-08-03T01:45:50.043Z,26.10
2018-08-03T01:48:18.305Z,26.10
2018-08-03T01:50:46.528Z,26.10
2018-08-03T01:53:14.714Z,26.00
2018-08-03T01:55:42.927Z,26.00
2018-08-03T01:58:11.195Z,26.00
2018-08-03T02:00:39.452Z,26.00
2018-08-03T02:03:07.720Z,25.90
2018-08-03T02:05:35.839Z,25.90
2018-08-03T02:08:04.109Z,25.90
2018-08-03T02:10:32.312Z,25.80
2018-08-03T02:13:00.513Z,25.80
2018-08-03T02:15:28.719Z,25.80
2018-08-03T02:17:57.185Z,25.80
2018-08-03T02:20:25.437Z,25.80
2018-08-03T02:22:54.075Z,25.80
2018-08-03T02:25:22.383Z,25.80
2018-08-03T02:27:50.625Z,25.80
2018-08-03T02:30:18.811Z,25.70
2018-08-03T02:32:46.995Z,25.70
2018-08-03T02:35:15.404Z,25.70
2018-08-03T02:37:43.594Z,25.70
2018-08-03T02:40:11.814Z,25.70
2018-08-03T02:42:40.012Z,25.70
2018-08-03T02:45:08.187Z,25.70
2018-08-03T02:47:36.391Z,25.60
2018-08-03T02:50:04.676Z,25.60
2018-08-03T02:52:32.863Z,25.60
2018-08-03T02:55:01.088Z,25.60
2018-08-03T02:57:29.278Z,25.60
2018-08-03T02:59:57.534Z,25.60
2018-08-03T03:02:25.746Z,25.60
2018-08-03T03:04:53.954Z,25.60
2018-08-03T03:07:22.209Z,25.60
2018-08-03T03:09:50.347Z,25.60
2018-08-03T03:12:18.544Z,25.60
2018-08-03T03:14:46.722Z,25.60
2018-08-03T03:17:14.922Z,25.60
2018-08-03T03:19:43.113Z,25.60
2018-08-03T03:22:11.317Z,25.60
2018-08-03T03:24:39.541Z,25.60
2018-08-03T03:27:07.715Z,25.60
2018-08-03T03:29:35.907Z,25.60
2018-08-03T03:32:04.091Z,25.60
2018-08-03T03:34:32.315Z,25.60
2018-08-03T03:37:00.663Z,25.50
2018-08-03T03:39:28.833Z,25.40
2018-08-03T03:41:57.019Z,25.40
2018-08-03T03:44:25.193Z,25.30
2018-08-03T03:46:53.363Z,25.20
2018-08-03T03:49:21.605Z,25.10
2018-08-03T03:51:49.881Z,25.00
2018-08-03T03:54:18.179Z,25.00
2018-08-03T03:56:46.713Z,24.90
2018-08-03T03:59:15.007Z,24.90
2018-08-03T04:01:43.165Z,24.90
2018-08-03T04:04:11.379Z,24.90
2018-08-03T04:06:39.599Z,24.90
2018-08-03T04:09:09.413Z,24.90
2018-08-03T04:11:37.615Z,24.90
2018-08-03T04:14:05.835Z,24.90
2018-08-03T04:16:34.315Z,24.90
2018-08-03T04:19:02.519Z,24.90
2018-08-03T04:23:58.975Z,24.90
2018-08-03T04:26:27.191Z,24.90
2018-08-03T04:28:55.535Z,24.80
2018-08-03T04:31:23.749Z,24.80
2018-08-03T04:33:51.931Z,24.80
2018-08-03T04:36:20.128Z,24.80
2018-08-03T04:38:48.353Z,24.80
2018-08-03T04:41:16.511Z,24.90
2018-08-03T04:43:44.737Z,24.90
2018-08-03T04:46:13.089Z,24.90
2018-08-03T04:48:41.414Z,24.90
2018-08-03T04:51:09.539Z,24.90
2018-08-03T04:53:37.766Z,25.00
2018-08-03T04:56:05.927Z,24.90
2018-08-03T04:58:34.213Z,25.00
2018-08-03T05:01:02.391Z,25.00
2018-08-03T05:03:30.579Z,25.00
2018-08-03T05:05:58.793Z,25.00
2018-08-03T05:08:26.989Z,25.10
2018-08-03T05:10:55.184Z,25.20
2018-08-03T05:13:23.375Z,25.20
2018-08-03T05:15:51.579Z,25.20
2018-08-03T05:18:19.835Z,25.30
2018-08-03T05:20:48.037Z,25.40
2018-08-03T05:23:16.245Z,25.40
2018-08-03T05:25:44.435Z,25.60
2018-08-03T05:28:12.712Z,25.60
2018-08-03T05:30:40.903Z,25.70
2018-08-03T05:33:09.100Z,25.70
2018-08-03T05:35:37.311Z,25.80
2018-08-03T05:38:05.597Z,25.90
2018-08-03T05:40:33.783Z,25.90
2018-08-03T05:43:01.954Z,26.00
2018-08-03T05:45:30.165Z,26.10
2018-08-03T05:47:58.565Z,26.20
2018-08-03T05:50:26.808Z,26.20
2018-08-03T05:52:55.012Z,26.30
2018-08-03T05:55:23.249Z,26.40
2018-08-03T05:57:51.583Z,26.40
2018-08-03T06:00:19.737Z,26.50
2018-08-03T06:02:47.930Z,26.60
2018-08-03T06:05:16.126Z,26.70
2018-08-03T06:07:44.327Z,26.80
2018-08-03T06:10:12.529Z,26.80
2018-08-03T06:12:40.719Z,26.90
2018-08-03T06:15:09.989Z,27.00
2018-08-03T06:17:38.595Z,27.10
2018-08-03T06:20:08.153Z,27.10
2018-08-03T06:22:36.372Z,27.20
2018-08-03T06:25:05.792Z,27.20
2018-08-03T06:27:34.005Z,27.30
2018-08-03T06:30:02.272Z,27.30
2018-08-03T06:32:30.465Z,27.40
2018-08-03T06:34:58.664Z,27.50
2018-08-03T06:37:26.859Z,27.50
2018-08-03T06:39:55.481Z,27.60
2018-08-03T06:42:23.664Z,27.70
2018-08-03T06:44:51.865Z,27.80
2018-08-03T06:47:20.088Z,27.90
2018-08-03T06:49:48.264Z,27.90
2018-08-03T06:54:44.568Z,28.10
2018-08-03T06:57:12.811Z,28.20
2018-08-03T06:59:40.996Z,28.30
2018-08-03T07:02:09.217Z,28.30
2018-08-03T07:04:37.422Z,28.40
2018-08-03T07:07:05.908Z,28.50
2018-08-03T07:09:34.134Z,28.60
2018-08-03T07:12:02.344Z,28.60
2018-08-03T07:14:30.570Z,28.70
2018-08-03T07:16:58.724Z,28.70
2018-08-03T07:19:26.934Z,28.80
2018-08-03T07:21:55.117Z,28.80
2018-08-03T07:24:23.275Z,28.90
2018-08-03T07:26:51.492Z,28.90
2018-08-03T07:29:19.676Z,29.00
2018-08-03T07:31:47.870Z,29.10
2018-08-03T07:34:16.043Z,29.10
2018-08-03T07:36:44.234Z,29.30
2018-08-03T07:39:12.446Z,29.30
2018-08-03T07:41:40.686Z,29.30
2018-08-03T07:44:08.906Z,29.50
2018-08-03T07:46:37.142Z,29.60
2018-08-03T07:49:05.406Z,29.70
2018-08-03T07:54:01.572Z,29.90
2018-08-03T07:56:29.786Z,30.00
2018-08-03T07:58:58.020Z,30.10
2018-08-03T08:01:26.208Z,30.20
2018-08-03T08:03:54.402Z,30.30
2018-08-03T08:06:22.675Z,30.40
2018-08-03T08:08:51.125Z,30.40
2018-08-03T08:13:47.574Z,30.60
2018-08-03T08:16:15.786Z,30.60
2018-08-03T08:18:43.988Z,30.70
2018-08-03T08:21:12.230Z,30.90
2018-08-03T08:26:08.468Z,31.10
2018-08-03T08:28:36.682Z,31.20
2018-08-03T08:31:04.872Z,31.30
2018-08-03T08:33:33.063Z,31.40
2018-08-03T08:36:01.269Z,31.60
2018-08-03T08:38:29.551Z,31.70
2018-08-03T08:40:57.745Z,31.80
2018-08-03T08:43:25.964Z,31.80
2018-08-03T08:48:22.192Z,32.00
2018-08-03T08:50:50.390Z,32.10
2018-08-03T08:53:18.655Z,32.20
2018-08-03T08:55:46.796Z,32.40
2018-08-03T08:58:15.063Z,32.50
2018-08-03T09:00:43.261Z,32.60
2018-08-03T09:03:11.450Z,32.70
2018-08-03T09:05:39.675Z,32.80
2018-08-03T09:08:07.945Z,32.90
2018-08-03T09:10:36.130Z,33.00
2018-08-03T09:13:04.382Z,33.20
2018-08-03T09:15:32.514Z,33.30
2018-08-03T09:18:00.771Z,33.40
2018-08-03T09:20:29.153Z,33.50
2018-08-03T09:22:57.376Z,33.50
2018-08-03T09:25:25.575Z,33.60
2018-08-03T09:27:53.850Z,33.90
2018-08-03T09:30:22.028Z,34.30
2018-08-03T09:32:50.282Z,34.60
2018-08-03T09:37:46.631Z,35.80
2018-08-03T09:40:14.859Z,36.20
2018-08-03T09:42:43.259Z,36.70
2018-08-03T09:45:11.472Z,37.40
2018-08-03T09:47:39.636Z,38.30
2018-08-03T09:50:07.827Z,39.10
2018-08-03T09:52:36.062Z,39.70
2018-08-03T09:55:04.266Z,40.30
2018-08-03T09:57:32.523Z,40.40
2018-08-03T10:00:00.756Z,40.50
2018-08-03T10:02:28.937Z,40.70
2018-08-03T10:04:57.333Z,40.80
2018-08-03T10:07:25.583Z,41.10
2018-08-03T10:09:53.776Z,41.00
2018-08-03T10:12:21.987Z,41.50
2018-08-03T10:14:50.180Z,42.00
2018-08-03T10:17:18.376Z,42.50
2018-08-03T10:19:46.581Z,42.80
2018-08-03T10:22:14.768Z,43.20
2018-08-03T10:24:42.947Z,43.40
2018-08-03T10:27:11.159Z,43.20
2018-08-03T10:29:39.375Z,43.00
2018-08-03T10:32:07.725Z,43.00
2018-08-03T10:34:35.965Z,43.40
2018-08-03T10:37:04.136Z,43.70
2018-08-03T10:39:32.359Z,44.00
2018-08-03T10:42:00.565Z,44.00
2018-08-03T10:44:28.761Z,44.10
2018-08-03T10:46:56.993Z,44.30
2018-08-03T10:49:25.165Z,44.30
2018-08-03T10:51:53.343Z,44.50
2018-08-03T10:54:21.551Z,44.60
2018-08-03T10:56:49.749Z,44.60
2018-08-03T11:01:46.032Z,44.90
2018-08-03T11:04:14.115Z,44.90
2018-08-03T11:06:42.362Z,44.50
2018-08-03T11:09:10.839Z,44.70
2018-08-03T11:11:39.133Z,44.60
2018-08-03T11:14:07.401Z,45.00
2018-08-03T11:16:35.879Z,45.00
2018-08-03T11:19:04.155Z,45.10
2018-08-03T11:21:32.389Z,45.40
2018-08-03T11:24:00.592Z,45.50
2018-08-03T11:26:28.749Z,45.60
2018-08-03T11:28:56.938Z,45.20
2018-08-03T11:31:25.179Z,45.20
2018-08-03T11:33:53.403Z,45.30
2018-08-03T11:36:21.588Z,45.80
2018-08-03T11:38:49.885Z,46.50
2018-08-03T11:41:18.061Z,46.80
2018-08-03T11:43:46.263Z,46.90
2018-08-03T11:46:14.468Z,47.10
2018-08-03T11:48:42.668Z,47.40
2018-08-03T11:51:10.835Z,47.60
2018-08-03T11:53:39.071Z,47.50
2018-08-03T11:56:07.508Z,47.30
2018-08-03T12:05:19.477Z,47.00
2018-08-03T12:07:47.664Z,46.60
2018-08-03T12:10:15.883Z,46.80
2018-08-03T12:12:44.094Z,47.20
2018-08-03T12:15:12.291Z,47.50
2018-08-03T12:17:40.499Z,47.70
2018-08-03T12:20:08.691Z,47.80
2018-08-03T12:22:36.907Z,47.90
2018-08-03T12:25:05.132Z,48.40
2018-08-03T12:27:33.338Z,48.90
2018-08-03T12:30:01.565Z,48.90
2018-08-03T12:32:29.769Z,48.70
2018-08-03T12:34:57.950Z,48.70
2018-08-03T12:37:26.164Z,48.60
2018-08-03T12:39:54.378Z,48.60
2018-08-03T12:42:22.595Z,48.50
2018-08-03T12:44:50.804Z,48.70
2018-08-03T12:47:19.580Z,49.00
2018-08-03T12:49:48.418Z,49.20
2018-08-03T12:52:17.176Z,49.20
2018-08-03T12:54:46.125Z,49.00
2018-08-03T12:57:14.542Z,49.00
2018-08-03T12:59:43.017Z,49.00
2018-08-03T13:02:11.528Z,49.10
2018-08-03T13:04:40.492Z,49.30
2018-08-03T13:07:09.217Z,49.50
2018-08-03T13:09:37.382Z,49.70
2018-08-03T13:12:05.634Z,49.70
2018-08-03T13:17:02.232Z,49.50
2018-08-03T13:19:30.430Z,49.70
2018-08-03T13:21:58.632Z,49.40
2018-08-03T13:24:26.840Z,48.70
2018-08-03T13:26:55.060Z,48.00
2018-08-03T13:29:23.320Z,47.60
2018-08-03T13:31:51.462Z,47.80
2018-08-03T13:34:19.674Z,47.90
2018-08-03T13:36:48.141Z,48.20
2018-08-03T13:39:16.524Z,48.50
2018-08-03T13:41:44.750Z,48.80
2018-08-03T13:44:12.982Z,49.10
2018-08-03T13:46:41.186Z,49.30
2018-08-03T13:49:09.420Z,49.30
2018-08-03T13:51:37.658Z,49.20
2018-08-03T13:54:05.871Z,49.20
2018-08-03T13:56:34.046Z,49.20
2018-08-03T13:59:02.256Z,48.90
2018-08-03T14:01:38.537Z,48.80
2018-08-03T14:04:06.787Z,48.90
2018-08-03T14:06:34.926Z,48.90
2018-08-03T14:09:04.474Z,48.70
2018-08-03T14:11:32.670Z,48.40
2018-08-03T14:14:00.867Z,48.50
2018-08-03T14:16:29.060Z,48.50
2018-08-03T14:18:57.242Z,48.20
2018-08-03T14:21:25.474Z,48.00
2018-08-03T14:23:53.735Z,48.20
2018-08-03T14:26:21.963Z,48.30
2018-08-03T14:28:50.170Z,48.00
2018-08-03T14:31:18.444Z,47.70
2018-08-03T14:33:46.589Z,47.50
2018-08-03T14:36:14.781Z,47.50
2018-08-03T14:38:42.992Z,47.70
2018-08-03T14:41:11.188Z,48.10
2018-08-03T14:43:39.387Z,48.00
2018-08-03T14:46:07.586Z,47.50
2018-08-03T14:48:35.778Z,47.30
2018-08-03T14:51:04.052Z,46.80
2018-08-03T14:53:32.278Z,46.70
2018-08-03T14:56:00.468Z,46.60
2018-08-03T14:58:28.664Z,46.50
2018-08-03T15:03:24.838Z,46.30
2018-08-03T15:05:53.024Z,45.90
2018-08-03T15:08:21.226Z,45.20
2018-08-03T15:10:49.420Z,44.50
2018-08-03T15:13:17.664Z,44.20
2018-08-03T15:15:45.878Z,43.80
2018-08-03T15:18:14.130Z,43.70
2018-08-03T15:20:42.320Z,43.60
2018-08-03T15:23:10.511Z,43.50
2018-08-03T15:25:38.726Z,43.40
2018-08-03T15:28:06.920Z,43.00
2018-08-03T15:30:35.164Z,42.70
2018-08-03T15:33:03.361Z,42.40
2018-08-03T15:35:31.564Z,42.10
2018-08-03T15:37:59.865Z,41.80
2018-08-03T15:40:28.112Z,41.40
2018-08-03T15:42:56.309Z,41.00
2018-08-03T15:45:24.533Z,40.70
2018-08-03T15:47:52.800Z,40.40
2018-08-03T15:50:21.101Z,40.30
2018-08-03T15:52:49.347Z,40.20
2018-08-03T15:55:17.498Z,40.30
2018-08-03T16:00:13.623Z,40.10
2018-08-03T16:05:10.400Z,39.80
2018-08-03T16:07:38.595Z,39.80
2018-08-03T16:10:06.982Z,39.80
2018-08-03T16:12:35.199Z,39.60
2018-08-03T16:15:03.424Z,39.50
2018-08-03T16:17:31.643Z,39.50
2018-08-03T16:19:59.843Z,39.40
2018-08-03T16:22:28.063Z,39.40
2018-08-03T16:24:56.297Z,39.40
2018-08-03T16:27:24.463Z,39.40
2018-08-03T16:29:53.501Z,39.30
2018-08-03T16:32:21.738Z,39.20
2018-08-03T16:34:49.934Z,39.10
2018-08-03T16:37:18.131Z,39.10
2018-08-03T16:39:46.335Z,39.00
2018-08-03T16:42:14.516Z,38.80
2018-08-03T16:44:42.853Z,38.70
2018-08-03T16:47:11.051Z,38.70
2018-08-03T16:49:39.263Z,38.70
2018-08-03T16:52:07.456Z,38.70
2018-08-03T16:54:35.639Z,38.70
2018-08-03T16:57:03.857Z,38.70
2018-08-03T16:59:32.225Z,38.60
2018-08-03T17:02:00.817Z,38.60
2018-08-03T17:04:29.001Z,38.50
2018-08-03T17:06:57.221Z,38.50
2018-08-03T17:09:25.413Z,38.40
2018-08-03T17:11:53.590Z,38.30
2018-08-03T17:16:49.799Z,38.00
2018-08-03T17:19:18.013Z,37.90
2018-08-03T17:21:46.205Z,37.70
2018-08-03T17:24:14.395Z,37.60
2018-08-03T17:26:42.628Z,37.50
2018-08-03T17:29:10.812Z,37.30
2018-08-03T17:31:39.022Z,37.10
2018-08-03T17:36:35.335Z,36.90
2018-08-03T17:39:04.541Z,37.00
2018-08-03T17:41:32.737Z,37.00
2018-08-03T17:44:01.115Z,37.00
2018-08-03T17:46:29.337Z,36.90
2018-08-03T17:48:57.525Z,36.80
2018-08-03T17:51:25.739Z,36.70
2018-08-03T17:53:53.919Z,36.50
2018-08-03T17:56:22.149Z,36.50
2018-08-03T17:58:50.461Z,36.30
2018-08-03T18:01:18.649Z,36.20
2018-08-03T18:03:46.850Z,36.10
2018-08-03T18:06:15.089Z,36.00
2018-08-03T18:08:43.640Z,35.90
2018-08-03T18:11:11.891Z,35.80
2018-08-03T18:13:40.205Z,35.70
2018-08-03T18:16:09.111Z,35.60
2018-08-03T18:18:37.371Z,35.60
2018-08-03T18:21:05.595Z,35.60
2018-08-03T18:23:33.791Z,35.50
2018-08-03T18:26:02.004Z,35.50
2018-08-03T18:28:30.222Z,35.40
2018-08-03T18:30:58.401Z,35.40
2018-08-03T18:33:26.592Z,35.30
2018-08-03T18:35:54.804Z,35.20
2018-08-03T18:38:23.060Z,35.10
2018-08-03T18:40:51.235Z,35.00
2018-08-03T18:43:19.457Z,35.00
2018-08-03T18:45:47.647Z,34.90
2018-08-03T18:48:15.927Z,34.70
2018-08-03T18:50:44.127Z,34.60
2018-08-03T18:53:12.338Z,34.50
2018-08-03T18:55:40.549Z,34.40
2018-08-03T18:58:08.782Z,34.30
2018-08-03T19:00:37.137Z,34.20
2018-08-03T19:03:05.307Z,34.10
2018-08-03T19:05:33.499Z,33.90
2018-08-03T19:08:01.762Z,33.80
2018-08-03T19:10:30.000Z,33.70
2018-08-03T19:12:58.206Z,33.60
2018-08-03T19:15:26.519Z,33.60
2018-08-03T19:17:54.850Z,33.40
2018-08-03T19:20:23.033Z,33.40
2018-08-03T19:22:51.512Z,33.20
2018-08-03T19:25:19.715Z,33.20
2018-08-03T19:27:47.916Z,33.10
2018-08-03T19:30:16.444Z,33.00
2018-08-03T19:32:44.716Z,32.90
2018-08-03T19:35:12.926Z,32.80
2018-08-03T19:37:41.127Z,32.70
2018-08-03T19:40:09.320Z,32.60
2018-08-03T19:42:37.536Z,32.60
2018-08-03T19:47:34.132Z,32.50
2018-08-03T19:50:02.366Z,32.40
2018-08-03T19:52:30.753Z,32.40
2018-08-03T19:54:58.960Z,32.30
2018-08-03T19:57:27.183Z,32.30
2018-08-03T19:59:55.379Z,32.10
2018-08-03T20:02:23.600Z,32.00
2018-08-03T20:04:52.005Z,31.90
2018-08-03T20:07:20.201Z,31.80
2018-08-03T20:09:48.358Z,31.70
2018-08-03T20:12:16.568Z,31.60
2018-08-03T20:14:44.776Z,31.50
2018-08-03T20:19:40.930Z,31.30
2018-08-03T20:24:41.626Z,31.10
2018-08-03T20:27:09.914Z,31.00
2018-08-03T20:29:38.254Z,30.90
2018-08-03T20:32:06.462Z,30.90
2018-08-03T20:34:34.673Z,30.70
2018-08-03T20:37:02.948Z,30.60
2018-08-03T20:39:31.172Z,30.50
2018-08-03T20:41:59.394Z,30.40
2018-08-03T20:44:27.620Z,30.30
2018-08-03T20:46:55.798Z,30.20
2018-08-03T20:49:24.284Z,30.20
2018-08-03T20:51:52.511Z,30.10
2018-08-03T20:54:20.870Z,30.00
2018-08-03T20:56:49.048Z,30.00
2018-08-03T20:59:17.318Z,29.90
2018-08-03T21:01:45.508Z,29.90
2018-08-03T21:06:41.668Z,29.70
2018-08-03T21:11:39.412Z,29.60
2018-08-03T21:14:07.616Z,29.60
2018-08-03T21:16:36.936Z,29.50
2018-08-03T21:19:05.394Z,29.50
2018-08-03T21:21:34.434Z,29.50
2018-08-03T21:24:02.650Z,29.50
2018-08-03T21:26:30.844Z,29.50
2018-08-03T21:28:59.046Z,29.40
2018-08-03T21:31:28.141Z,29.40
2018-08-03T21:33:56.350Z,29.40
2018-08-03T21:36:24.552Z,29.30
2018-08-03T21:38:52.746Z,29.30
2018-08-03T21:41:21.054Z,29.20
2018-08-03T21:43:49.258Z,29.20
2018-08-03T21:46:17.446Z,29.10
2018-08-03T21:51:13.562Z,29.00
2018-08-03T21:53:41.766Z,28.90
2018-08-03T21:58:38.148Z,28.60
2018-08-03T22:01:08.562Z,28.50
2018-08-03T22:03:36.758Z,28.40
2018-08-03T22:06:04.988Z,28.30
2018-08-03T22:08:33.237Z,28.20
2018-08-03T22:11:01.497Z,28.20
2018-08-03T22:13:29.729Z,28.10
2018-08-03T22:15:57.928Z,28.00
2018-08-03T22:18:26.534Z,28.00
2018-08-03T22:20:54.722Z,27.90
2018-08-03T22:23:22.950Z,27.70
2018-08-03T22:25:51.134Z,27.60
2018-08-03T22:28:19.412Z,27.50
2018-08-03T22:30:47.618Z,27.50
2018-08-03T22:33:15.810Z,27.40
2018-08-03T22:35:44.122Z,27.40
2018-08-03T22:38:12.365Z,27.40
2018-08-03T22:40:40.606Z,27.40
2018-08-03T22:43:08.956Z,27.50
2018-08-03T22:45:37.169Z,27.50
2018-08-03T22:48:05.338Z,27.50
2018-08-03T22:50:33.555Z,27.50
2018-08-03T22:53:01.752Z,27.50
2018-08-03T22:57:58.053Z,27.40
2018-08-03T23:00:26.567Z,27.30
2018-08-03T23:02:54.751Z,27.20
2018-08-03T23:05:22.933Z,27.10
2018-08-03T23:07:51.237Z,27.00
2018-08-03T23:10:19.473Z,26.90
2018-08-03T23:12:47.901Z,26.90
2018-08-03T23:15:16.114Z,26.90
2018-08-03T23:17:44.300Z,26.80
2018-08-03T23:20:12.528Z,26.80
2018-08-03T23:22:40.726Z,26.80
2018-08-03T23:25:08.954Z,26.80
2018-08-03T23:27:37.154Z,26.80
2018-08-03T23:32:34.273Z,26.80
2018-08-03T23:35:02.464Z,26.90
2018-08-03T23:37:30.643Z,26.90
2018-08-03T23:39:58.910Z,27.00
2018-08-03T23:42:27.093Z,27.10
2018-08-03T23:44:55.312Z,27.10
2018-08-03T23:47:23.495Z,27.00
2018-08-03T23:49:51.769Z,26.90
2018-08-03T23:52:20.016Z,26.80
2018-08-03T23:54:48.182Z,26.80
2018-08-03T23:59:44.470Z,26.50
